Time;durP1;ratioP1;P1;durP2;ratioP2;P2;SDS_P1;SDS_P2;PMS_P1;PMS_P2;Temp;Humidity;BMP_temperature;BMP_pressure;BME280_temperature;BME280_humidity;BME280_pressure;Samples;Min_cycle;Max_cycle;Signal;HPM_P1;HPM_P2
2023/01/11 00:01:06;;;;;;;1.48;0.90;;;;;;;9.42;100.00;100557.13;5055237;28;20044;-71
2023/01/11 00:03:33;;;;;;;0.57;0.52;;;;;;;9.51;100.00;100563.06;5053809;28;20051;-74
2023/01/11 00:06:00;;;;;;;2.42;1.00;;;;;;;9.61;100.00;100564.22;5062141;28;20056;-72
2023/01/11 00:08:27;;;;;;;2.40;1.20;;;;;;;9.66;100.00;100581.19;5054455;28;20048;-72
2023/01/11 00:10:54;;;;;;;2.88;0.85;;;;;;;9.60;100.00;100577.28;5048658;28;20063;-72
2023/01/11 00:13:21;;;;;;;0.55;0.45;;;;;;;9.63;100.00;100562.69;5054371;28;20044;-72
2023/01/11 00:15:48;;;;;;;1.30;0.80;;;;;;;9.69;100.00;100563.84;5058443;28;20049;-73
2023/01/11 00:18:14;;;;;;;0.50;0.50;;;;;;;9.72;100.00;100557.53;5053989;28;20054;-73
2023/01/11 00:20:41;;;;;;;3.03;0.68;;;;;;;9.90;100.00;100549.25;5051332;28;20048;-72
2023/01/11 00:23:08;;;;;;;0.52;0.45;;;;;;;9.85;100.00;100555.16;5048133;28;20052;-72
2023/01/11 00:25:35;;;;;;;2.30;0.73;;;;;;;9.90;100.00;100549.25;5058119;28;20049;-72
2023/01/11 00:28:02;;;;;;;3.20;0.63;;;;;;;9.98;100.00;100540.53;5055608;28;20049;-73
2023/01/11 00:30:28;;;;;;;0.85;0.75;;;;;;;9.98;100.00;100548.03;5060839;28;20816;-73
2023/01/11 00:32:59;;;;;;;0.80;0.63;;;;;;;10.16;100.00;100557.91;5051166;28;21032;-72
2023/01/11 00:35:26;;;;;;;4.75;0.75;;;;;;;10.26;100.00;100551.56;5058058;28;20055;-71
2023/01/11 00:37:53;;;;;;;0.70;0.60;;;;;;;10.18;100.00;100547.25;5051615;28;21001;-72
2023/01/11 00:40:20;;;;;;;2.70;0.70;;;;;;;10.23;100.00;100543.28;5053380;28;20907;-74
2023/01/11 00:48:17;;;;;;;1.88;0.73;;;;;;;10.32;100.00;100538.13;5048520;28;20056;-74
2023/01/11 00:50:43;;;;;;;0.20;0.20;;;;;;;10.29;100.00;100539.72;5050476;28;20060;-72
2023/01/11 00:53:10;;;;;;;2.65;0.75;;;;;;;10.36;100.00;100536.91;5055133;28;20064;-73
2023/01/11 00:55:37;;;;;;;5.15;1.08;;;;;;;10.36;100.00;100534.16;5051743;28;20059;-74
2023/01/11 00:58:03;;;;;;;3.85;1.00;;;;;;;10.41;100.00;100531.00;5046708;28;20052;-74
2023/01/11 01:00:30;;;;;;;0.47;0.47;;;;;;;10.37;100.00;100521.13;5048760;28;20782;-73
2023/01/11 01:02:57;;;;;;;0.47;0.45;;;;;;;10.44;100.00;100519.09;5051118;28;20063;-73
2023/01/11 01:05:23;;;;;;;1.17;0.80;;;;;;;10.37;100.00;100523.88;5053864;28;20043;-72
2023/01/11 01:07:50;;;;;;;0.50;0.50;;;;;;;10.50;100.00;100514.75;5055060;28;20063;-73
2023/01/11 01:10:17;;;;;;;1.20;0.68;;;;;;;10.57;100.00;100513.13;5060271;28;20048;-72
2023/01/11 01:15:31;;;;;;;0.50;0.45;;;;;;;10.50;100.00;100500.13;5051109;28;20710;-72
2023/01/11 01:17:57;;;;;;;0.40;0.40;;;;;;;10.48;100.00;100508.03;5048759;28;20133;-73
2023/01/11 01:20:24;;;;;;;0.40;0.40;;;;;;;10.58;100.00;100496.13;5054354;28;20048;-73
2023/01/11 01:22:51;;;;;;;0.40;0.40;;;;;;;10.63;100.00;100492.94;5054930;28;20052;-73
2023/01/11 01:25:18;;;;;;;0.90;0.77;;;;;;;10.71;100.00;100500.03;5054143;28;20059;-73
2023/01/11 01:27:44;;;;;;;1.33;0.77;;;;;;;10.76;100.00;100496.06;5052913;28;20062;-73
2023/01/11 01:30:12;;;;;;;0.38;0.38;;;;;;;10.74;100.00;100492.91;5049951;28;20052;-73
2023/01/11 01:32:38;;;;;;;0.60;0.40;;;;;;;10.82;100.00;100489.69;5048213;28;20139;-72
2023/01/11 01:35:05;;;;;;;0.50;0.50;;;;;;;10.99;100.00;100490.75;5057890;28;20052;-74
2023/01/11 01:37:32;;;;;;;1.05;0.60;;;;;;;10.99;100.00;100493.53;5051069;28;20206;-72
2023/01/11 01:39:59;;;;;;;0.35;0.35;;;;;;;11.00;100.00;100497.91;5048329;28;20045;-72
2023/01/11 01:42:25;;;;;;;0.35;0.35;;;;;;;11.03;100.00;100497.84;5055618;28;20588;-73
2023/01/11 01:44:57;;;;;;;0.63;0.50;;;;;;;11.08;100.00;100497.44;5051122;28;20055;-72
2023/01/11 01:47:33;;;;;;;0.85;0.50;;;;;;;11.19;100.00;100481.53;5055311;28;20548;-73
2023/01/11 01:50:09;;;;;;;1.08;0.60;;;;;;;11.09;100.00;100471.31;5052434;28;20796;-74
2023/01/11 01:52:35;;;;;;;0.45;0.45;;;;;;;11.24;100.00;100467.25;5059402;28;20048;-73
2023/01/11 01:55:07;;;;;;;2.28;0.57;;;;;;;11.20;100.00;100455.41;5056054;28;20059;-72
2023/01/11 01:57:38;;;;;;;0.88;0.63;;;;;;;11.32;100.00;100463.25;5055665;28;20075;-73
2023/01/11 02:00:07;;;;;;;0.90;0.60;;;;;;;11.36;100.00;100460.44;5052418;28;20055;-73
2023/01/11 02:02:36;;;;;;;0.40;0.40;;;;;;;11.27;100.00;100466.44;5047656;28;20084;-73
2023/01/11 02:05:04;;;;;;;0.65;0.63;;;;;;;11.29;100.00;100469.59;5053493;28;20047;-72
2023/01/11 02:07:34;;;;;;;2.90;0.57;;;;;;;11.30;100.00;100475.94;5059875;28;20083;-73
2023/01/11 02:10:03;;;;;;;0.60;0.60;;;;;;;11.49;100.00;100461.50;5055756;28;20040;-73
2023/01/11 02:12:40;;;;;;;0.98;0.93;;;;;;;11.40;100.00;100453.66;5046596;28;20051;-73
2023/01/11 02:15:10;;;;;;;1.52;0.65;;;;;;;11.33;100.00;100462.03;5057614;28;20507;-74
2023/01/11 02:17:36;;;;;;;1.27;0.40;;;;;;;11.30;100.00;100460.06;5077290;28;20051;-72
2023/01/11 02:20:18;;;;;;;2.72;0.40;;;;;;;11.30;100.00;100465.63;5067417;28;20482;-72
2023/01/11 02:22:54;;;;;;;0.40;0.40;;;;;;;11.37;100.00;100462.00;5068187;28;20045;-73
2023/01/11 02:25:45;;;;;;;1.75;0.85;;;;;;;11.14;100.00;100462.56;5068078;28;20049;-72
2023/01/11 02:28:24;;;;;;;0.90;0.55;;;;;;;11.26;100.00;100456.56;5068717;28;20048;-72
2023/01/11 02:31:04;;;;;;;0.32;0.30;;;;;;;11.08;100.00;100464.22;5071495;28;20044;-73
2023/01/11 02:33:34;;;;;;;0.22;0.22;;;;;;;11.01;100.00;100460.69;5074651;28;20045;-75
2023/01/11 02:36:28;;;;;;;0.43;0.40;;;;;;;11.05;100.00;100453.16;5072466;28;20076;-74
2023/01/11 02:39:10;;;;;;;2.83;0.57;;;;;;;10.89;100.00;100455.63;5086006;28;20048;-72
2023/01/11 02:47:48;;;;;;;1.25;0.60;;;;;;;10.73;100.00;100458.91;5076343;28;20794;-73
2023/01/11 02:50:54;;;;;;;0.65;0.50;;;;;;;10.63;100.00;100453.44;5067619;28;20051;-72
2023/01/11 02:53:28;;;;;;;0.90;0.40;;;;;;;10.60;100.00;100448.72;5066147;28;20044;-73
2023/01/11 02:56:00;;;;;;;0.47;0.47;;;;;;;10.63;100.00;100448.66;5078436;28;20061;-74
2023/01/11 02:58:31;;;;;;;0.30;0.30;;;;;;;10.66;100.00;100447.88;5077054;28;20052;-73
2023/01/11 03:00:59;;;;;;;0.30;0.30;;;;;;;10.57;100.00;100444.78;5070394;28;20053;-72
2023/01/11 03:03:29;;;;;;;0.40;0.40;;;;;;;10.54;100.00;100448.34;5083760;28;20127;-72
2023/01/11 03:06:06;;;;;;;0.50;0.50;;;;;;;10.59;100.00;100434.06;5079319;28;20051;-72
2023/01/11 03:08:45;;;;;;;1.10;0.70;;;;;;;10.56;100.00;100447.94;5080747;28;20055;-71
2023/01/11 03:14:50;;;;;;;1.05;0.60;;;;;;;10.40;100.00;100434.59;5081293;28;20040;-73
2023/01/11 03:17:26;;;;;;;2.10;0.68;;;;;;;10.47;100.00;100423.50;5077697;28;20040;-73
2023/01/11 03:20:10;;;;;;;2.53;0.65;;;;;;;10.52;100.00;100436.88;5067871;28;20048;-73
2023/01/11 03:22:44;;;;;;;0.85;0.50;;;;;;;10.48;100.00;100436.91;5068384;28;20058;-73
2023/01/11 03:25:24;;;;;;;0.40;0.40;;;;;;;10.48;100.00;100425.06;5075706;28;20051;-73
2023/01/11 03:28:05;;;;;;;0.40;0.40;;;;;;;10.46;100.00;100444.81;5078011;28;20048;-74
2023/01/11 03:30:39;;;;;;;0.40;0.40;;;;;;;10.44;100.00;100425.06;5078647;28;20046;-72
2023/01/11 03:33:09;;;;;;;0.57;0.57;;;;;;;10.47;100.00;100432.56;5079310;28;20052;-72
2023/01/11 03:36:22;;;;;;;0.60;0.60;;;;;;;10.45;100.00;100436.91;5074570;28;20040;-72
2023/01/11 03:38:57;;;;;;;1.17;0.75;;;;;;;10.46;100.00;100428.22;5062768;28;20572;-72
2023/01/11 03:41:28;;;;;;;0.60;0.60;;;;;;;10.39;100.00;100430.22;5068378;28;20056;-72
2023/01/11 03:43:58;;;;;;;0.30;0.30;;;;;;;10.39;100.00;100424.69;5076630;28;20044;-73
2023/01/11 03:46:32;;;;;;;0.35;0.35;;;;;;;10.45;100.00;100426.66;5079038;28;20047;-73
2023/01/11 03:49:14;;;;;;;0.82;0.50;;;;;;;10.42;100.00;100423.91;5074269;28;20356;-73
2023/01/11 03:51:43;;;;;;;0.95;0.77;;;;;;;10.50;100.00;100417.91;5071373;28;20044;-72
2023/01/11 03:54:16;;;;;;;1.65;0.60;;;;;;;10.54;100.00;100412.38;5069348;28;20040;-73
2023/01/11 03:56:58;;;;;;;0.77;0.50;;;;;;;10.49;100.00;100419.13;5073857;28;20044;-73
2023/01/11 03:59:26;;;;;;;0.93;0.73;;;;;;;10.50;100.00;100423.44;5073375;28;20043;-73
2023/01/11 04:01:54;;;;;;;1.08;0.63;;;;;;;10.57;100.00;100423.41;5069869;28;20048;-72
2023/01/11 04:04:21;;;;;;;0.50;0.50;;;;;;;10.62;100.00;100415.88;5077400;28;20494;-73
2023/01/11 04:06:48;;;;;;;2.58;0.90;;;;;;;10.67;100.00;100418.22;5074997;28;20585;-73
2023/01/11 04:09:14;;;;;;;0.93;0.70;;;;;;;10.67;100.00;100409.94;5066051;28;20037;-73
2023/01/11 04:11:41;;;;;;;0.55;0.55;;;;;;;10.68;100.00;100405.97;5072148;28;20060;-72
2023/01/11 04:14:07;;;;;;;0.68;0.63;;;;;;;10.69;100.00;100405.56;5066791;28;20048;-73
2023/01/11 04:16:34;;;;;;;1.27;0.70;;;;;;;10.72;100.00;100398.41;5075798;28;20063;-74
2023/01/11 04:19:01;;;;;;;0.50;0.50;;;;;;;10.72;100.00;100398.41;5074024;28;20135;-72
2023/01/11 04:21:28;;;;;;;1.45;0.55;;;;;;;10.72;100.00;100398.41;5079702;28;20702;-72
2023/01/11 04:23:55;;;;;;;0.57;0.57;;;;;;;10.59;100.00;100406.41;5079683;28;20456;-72
2023/01/11 04:26:21;;;;;;;0.50;0.50;;;;;;;10.78;100.00;100407.88;5076772;28;20048;-72
2023/01/11 04:28:48;;;;;;;0.60;0.60;;;;;;;10.81;100.00;100396.78;5079048;28;20048;-72
2023/01/11 04:31:14;;;;;;;0.65;0.45;;;;;;;10.75;100.00;100398.41;5077920;28;20036;-72
2023/01/11 04:33:41;;;;;;;0.57;0.30;;;;;;;10.78;100.00;100385.72;5069846;28;20560;-72
2023/01/11 04:36:09;;;;;;;0.40;0.40;;;;;;;10.78;100.00;100388.50;5080591;28;20487;-73
2023/01/11 04:38:36;;;;;;;3.40;1.17;;;;;;;10.89;100.00;100378.94;5081777;28;20509;-72
2023/01/11 04:43:49;;;;;;;3.03;0.95;;;;;;;10.95;100.00;100373.75;5072731;28;20047;-72
2023/01/11 04:46:15;;;;;;;0.73;0.60;;;;;;;10.87;100.00;100392.38;5074696;28;20574;-74
2023/01/11 04:48:42;;;;;;;0.40;0.40;;;;;;;10.98;100.00;100393.09;5075598;28;20067;-72
2023/01/11 04:51:09;;;;;;;3.75;1.20;;;;;;;11.00;100.00;100392.69;5078134;28;20491;-72
2023/01/11 04:53:35;;;;;;;0.82;0.70;;;;;;;11.06;100.00;100379.97;5070365;28;20047;-74
2023/01/11 04:56:04;;;;;;;2.35;0.88;;;;;;;11.01;100.00;100386.75;5073362;28;20053;-73
2023/01/11 04:58:32;;;;;;;1.92;0.80;;;;;;;11.07;100.00;100373.25;5069697;28;20068;-72
2023/01/11 05:01:08;;;;;;;1.00;0.85;;;;;;;11.06;100.00;100377.19;5073872;28;20447;-72
2023/01/11 05:03:34;;;;;;;3.83;1.02;;;;;;;11.15;100.00;100388.59;5079734;28;20119;-72
2023/01/11 05:06:02;;;;;;;1.30;0.80;;;;;;;11.13;100.00;100380.69;5070288;28;20044;-72
2023/01/11 05:08:29;;;;;;;6.07;1.10;;;;;;;11.09;100.00;100390.22;5069961;28;20558;-72
2023/01/11 05:11:05;;;;;;;1.65;0.75;;;;;;;11.26;100.00;100386.53;5071121;28;20040;-72
2023/01/11 05:13:41;;;;;;;0.63;0.52;;;;;;;11.26;100.00;100384.53;5070610;28;20474;-75
2023/01/11 05:16:22;;;;;;;0.70;0.57;;;;;;;11.31;100.00;100388.88;5075306;28;20050;-74
2023/01/11 05:18:54;;;;;;;3.55;1.55;;;;;;;11.33;100.00;100380.91;5075094;28;20052;-73
2023/01/11 05:21:30;;;;;;;2.60;0.85;;;;;;;11.34;100.00;100393.59;5084806;28;20477;-72
2023/01/11 05:23:58;;;;;;;2.58;0.47;;;;;;;11.31;100.00;100384.09;5078598;28;20058;-72
2023/01/11 05:26:28;;;;;;;1.50;1.02;;;;;;;11.27;100.00;100386.09;5081775;28;20052;-73
2023/01/11 05:28:57;;;;;;;1.85;0.88;;;;;;;11.30;100.00;100387.28;5080930;28;20044;-72
2023/01/11 05:31:24;;;;;;;0.40;0.32;;;;;;;11.39;100.00;100393.94;5069588;28;20059;-73
2023/01/11 05:33:51;;;;;;;1.45;0.85;;;;;;;11.45;100.00;100380.41;5075019;28;20099;-72
2023/01/11 05:36:21;;;;;;;2.92;1.73;;;;;;;11.45;100.00;100389.53;5077081;28;20047;-72
2023/01/11 05:38:50;;;;;;;0.35;0.35;;;;;;;11.52;100.00;100389.44;5074467;28;20048;-72
2023/01/11 05:41:18;;;;;;;2.90;1.23;;;;;;;11.48;100.00;100385.13;5068588;28;20043;-72
2023/01/11 05:46:33;;;;;;;0.80;0.80;;;;;;;11.58;100.00;100381.47;5071709;28;20044;-74
2023/01/11 05:49:00;;;;;;;2.95;1.63;;;;;;;11.62;100.00;100380.28;5075188;28;20044;-71
2023/01/11 05:51:34;;;;;;;2.40;1.00;;;;;;;11.58;100.00;100385.00;5068679;28;20040;-72
2023/01/11 05:54:02;;;;;;;3.40;1.50;;;;;;;11.66;100.00;100385.75;5082004;28;20063;-72
2023/01/11 05:56:29;;;;;;;1.42;0.60;;;;;;;11.61;100.00;100384.22;5070785;28;20523;-74
2023/01/11 05:58:55;;;;;;;1.75;0.95;;;;;;;11.54;100.00;100383.50;5072400;28;20503;-73
2023/01/11 06:01:23;;;;;;;1.70;0.85;;;;;;;11.64;100.00;100374.31;5067956;28;20036;-73
2023/01/11 06:03:50;;;;;;;2.60;0.95;;;;;;;11.54;100.00;100375.94;5068586;28;20490;-73
2023/01/11 06:06:18;;;;;;;0.75;0.45;;;;;;;11.63;100.00;100378.25;5074719;28;20048;-73
2023/01/11 06:08:45;;;;;;;2.47;1.48;;;;;;;11.74;100.00;100378.97;5067663;28;20144;-73
2023/01/11 06:11:13;;;;;;;4.90;0.82;;;;;;;11.68;100.00;100384.13;5077258;28;20056;-73
2023/01/11 06:13:40;;;;;;;2.28;0.80;;;;;;;11.63;100.00;100379.06;5074400;28;20421;-72
2023/01/11 06:16:12;;;;;;;1.67;0.77;;;;;;;11.71;100.00;100377.78;5071605;28;20079;-73
2023/01/11 06:18:41;;;;;;;4.15;0.88;;;;;;;11.68;100.00;100372.28;5073995;28;20374;-73
2023/01/11 06:21:08;;;;;;;2.92;1.15;;;;;;;11.70;100.00;100386.50;5072649;28;20075;-74
2023/01/11 06:23:38;;;;;;;1.95;0.93;;;;;;;11.83;100.00;100382.00;5075165;28;20532;-73
2023/01/11 06:26:12;;;;;;;1.25;0.65;;;;;;;11.73;100.00;100389.25;5070640;28;20051;-74
2023/01/11 06:28:38;;;;;;;1.17;0.60;;;;;;;11.74;100.00;100392.81;5076559;28;20047;-73
2023/01/11 06:31:06;;;;;;;1.77;1.15;;;;;;;11.82;100.00;100383.22;5078520;28;20057;-74
2023/01/11 06:33:33;;;;;;;4.95;1.38;;;;;;;11.85;100.00;100385.94;5078369;28;20047;-73
2023/01/11 06:36:05;;;;;;;2.50;0.90;;;;;;;11.88;100.00;100376.78;5075299;28;20056;-72
2023/01/11 06:38:32;;;;;;;0.30;0.30;;;;;;;11.83;100.00;100382.81;5075946;28;20048;-72
2023/01/11 06:41:01;;;;;;;4.38;1.83;;;;;;;11.91;100.00;100378.72;5092424;28;20040;-72
2023/01/11 06:43:28;;;;;;;3.50;1.00;;;;;;;11.88;100.00;100379.56;5073403;28;20044;-75
2023/01/11 06:45:55;;;;;;;1.35;0.55;;;;;;;11.86;100.00;100395.84;5072443;28;20139;-75
2023/01/11 06:48:22;;;;;;;1.77;1.25;;;;;;;11.91;100.00;100400.91;5071704;28;20098;-73
2023/01/11 06:50:51;;;;;;;2.00;0.98;;;;;;;11.97;100.00;100404.00;5074197;28;20044;-74
2023/01/11 06:53:18;;;;;;;4.07;2.00;;;;;;;12.09;100.00;100389.63;5075144;28;20043;-73
2023/01/11 06:55:47;;;;;;;0.43;0.40;;;;;;;11.95;100.00;100389.78;5077270;28;20048;-74
2023/01/11 06:58:14;;;;;;;1.55;0.85;;;;;;;12.00;100.00;100392.91;5073272;28;20040;-72
2023/01/11 07:00:41;;;;;;;3.80;1.45;;;;;;;11.89;100.00;100378.38;5076795;28;20052;-74
2023/01/11 07:03:10;;;;;;;0.50;0.50;;;;;;;11.93;100.00;100395.75;5070373;28;20051;-74
2023/01/11 07:05:37;;;;;;;1.20;0.82;;;;;;;11.96;100.00;100408.00;5083493;28;20127;-72
2023/01/11 07:08:03;;;;;;;4.93;2.03;;;;;;;11.91;100.00;100416.78;5069704;28;20402;-73
2023/01/11 07:10:30;;;;;;;3.70;2.10;;;;;;;12.01;100.00;100419.41;5084350;28;20398;-73
2023/01/11 07:12:56;;;;;;;5.32;2.13;;;;;;;12.05;100.00;100416.63;5072175;28;20045;-75
2023/01/11 07:15:23;;;;;;;6.05;2.25;;;;;;;12.03;100.00;100419.81;5074541;28;20098;-73
2023/01/11 07:17:57;;;;;;;4.70;1.98;;;;;;;12.06;100.00;100426.50;5077755;28;20502;-73
2023/01/11 07:20:25;;;;;;;7.97;3.57;;;;;;;12.05;100.00;100430.47;5076289;28;20036;-73
2023/01/11 07:22:55;;;;;;;6.82;2.58;;;;;;;12.10;100.00;100432.78;5073411;28;20498;-73
2023/01/11 07:25:22;;;;;;;3.78;2.15;;;;;;;12.03;100.00;100435.63;5080907;28;20470;-73
2023/01/11 07:27:53;;;;;;;7.53;1.90;;;;;;;12.04;100.00;100438.00;5079768;28;20046;-73
2023/01/11 07:30:20;;;;;;;6.32;2.88;;;;;;;12.10;100.00;100446.66;5068660;28;20410;-73
2023/01/11 07:32:46;;;;;;;6.72;2.78;;;;;;;12.05;100.00;100453.44;5073819;28;20111;-72
2023/01/11 07:35:13;;;;;;;9.70;4.10;;;;;;;12.08;100.00;100441.50;5072395;28;20049;-75
2023/01/11 07:37:40;;;;;;;9.13;4.53;;;;;;;12.18;100.00;100453.66;5070268;28;20040;-72
2023/01/11 07:40:07;;;;;;;12.15;5.05;;;;;;;12.22;100.00;100466.31;5077162;28;20136;-74
2023/01/11 07:45:18;;;;;;;9.83;3.93;;;;;;;12.11;100.00;100476.75;5076569;28;20055;-72
2023/01/11 07:47:49;;;;;;;6.35;2.78;;;;;;;12.21;100.00;100475.03;5067043;28;20715;-73
2023/01/11 07:50:15;;;;;;;6.43;2.97;;;;;;;12.23;100.00;100467.91;5070900;28;20072;-73
2023/01/11 07:52:48;;;;;;;13.38;6.15;;;;;;;12.30;100.00;100456.72;5077168;28;20055;-72
2023/01/11 07:55:15;;;;;;;3.35;1.83;;;;;;;12.23;100.00;100467.09;5072269;28;20052;-74
2023/01/11 07:57:42;;;;;;;3.90;1.95;;;;;;;12.29;100.00;100463.44;5077874;28;20082;-74
2023/01/11 08:00:09;;;;;;;6.18;2.22;;;;;;;12.27;100.00;100468.63;5079699;28;20049;-73
2023/01/11 08:02:36;;;;;;;2.58;2.00;;;;;;;12.35;100.00;100459.03;5071730;28;20056;-74
2023/01/11 08:05:03;;;;;;;4.20;2.58;;;;;;;12.28;100.00;100464.66;5075163;28;20044;-74
2023/01/11 08:07:29;;;;;;;13.10;6.10;;;;;;;12.17;100.00;100457.66;5079543;28;20044;-75
2023/01/11 08:09:56;;;;;;;14.50;5.93;;;;;;;12.22;100.00;100443.34;5072755;28;20061;-76
2023/01/11 08:15:12;;;;;;;8.68;3.88;;;;;;;12.26;100.00;100460.72;5074762;28;20070;-75
2023/01/11 08:17:39;;;;;;;1.60;1.20;;;;;;;12.19;100.00;100474.69;5074061;28;20068;-74
2023/01/11 08:20:06;;;;;;;4.93;2.45;;;;;;;12.31;100.00;100482.44;5079996;28;20056;-75
2023/01/11 08:22:32;;;;;;;5.68;2.58;;;;;;;12.27;100.00;100478.94;5087041;28;20055;-73
2023/01/11 08:24:59;;;;;;;5.63;2.97;;;;;;;12.36;100.00;100477.22;5072988;28;20458;-75
2023/01/11 08:27:26;;;;;;;5.22;2.75;;;;;;;12.37;100.00;100478.81;5073595;28;20048;-74
2023/01/11 08:29:52;;;;;;;8.52;3.05;;;;;;;12.42;100.00;100497.00;5072305;28;20057;-74
2023/01/11 08:32:19;;;;;;;7.50;3.10;;;;;;;12.37;100.00;100500.22;5091000;28;20044;-75
2023/01/11 08:34:45;;;;;;;11.57;4.10;;;;;;;12.30;100.00;100473.38;5090240;28;20058;-74
2023/01/11 08:37:12;;;;;;;9.55;3.95;;;;;;;12.40;100.00;100494.66;5074494;28;20048;-76
2023/01/11 08:39:39;;;;;;;9.70;3.95;;;;;;;12.46;100.00;100497.75;5078180;28;20371;-71
2023/01/11 08:42:05;;;;;;;16.75;8.00;;;;;;;12.47;100.00;100513.19;5074903;28;20063;-73
2023/01/11 08:44:32;;;;;;;4.85;2.67;;;;;;;12.40;100.00;100499.41;5077019;28;20056;-76
2023/01/11 08:47:01;;;;;;;4.32;1.85;;;;;;;12.41;100.00;100518.41;5079848;28;20612;-73
2023/01/11 08:49:29;;;;;;;10.25;3.08;;;;;;;12.43;100.00;100531.88;5076846;28;20044;-73
2023/01/11 08:51:56;;;;;;;18.20;7.15;;;;;;;12.50;100.00;100531.78;5084118;28;20091;-73
2023/01/11 08:54:23;;;;;;;8.73;4.25;;;;;;;12.53;100.00;100556.69;5078078;28;20055;-72
2023/01/11 08:56:50;;;;;;;16.70;7.20;;;;;;;12.58;100.00;100567.38;5077623;28;20502;-74
2023/01/11 08:59:18;;;;;;;16.38;4.50;;;;;;;12.48;100.00;100567.47;5080421;28;20414;-75
2023/01/11 09:01:45;;;;;;;10.25;3.83;;;;;;;12.35;100.00;100558.09;5071051;28;20049;-75
2023/01/11 09:04:11;;;;;;;9.00;2.97;;;;;;;12.22;100.00;100570.94;5073618;28;20097;-75
2023/01/11 09:06:51;;;;;;;10.90;3.13;;;;;;;12.10;100.00;100561.16;5071726;28;20121;-74
2023/01/11 09:09:18;;;;;;;15.50;3.25;;;;;;;12.22;100.00;100573.72;5072360;28;20076;-74
2023/01/11 09:11:53;;;;;;;22.85;4.95;;;;;;;12.29;100.00;100554.22;5080998;28;20515;-74
2023/01/11 09:14:21;;;;;;;14.45;2.92;;;;;;;12.23;100.00;100550.31;5071241;28;20047;-74
2023/01/11 09:16:48;;;;;;;23.77;3.85;;;;;;;12.25;100.00;100553.47;5075448;28;20058;-72
2023/01/11 09:19:14;;;;;;;17.88;3.33;;;;;;;12.20;100.00;100563.03;5070324;28;20060;-75
2023/01/11 09:21:42;;;;;;;21.17;4.10;;;;;;;12.15;100.00;100573.78;5078384;28;20598;-75
2023/01/11 09:24:08;;;;;;;23.20;4.22;;;;;;;11.96;100.00;100589.00;5065935;28;20063;-74
2023/01/11 09:26:36;;;;;;;23.13;4.00;;;;;;;11.96;100.00;100596.53;5069428;28;20055;-71
2023/01/11 09:29:03;;;;;;;3.67;1.70;;;;;;;11.82;100.00;100602.19;5068276;28;20165;-74
2023/01/11 09:31:30;;;;;;;19.48;3.80;;;;;;;11.96;100.00;100586.25;5070798;28;20743;-74
2023/01/11 09:33:57;;;;;;;15.27;3.65;;;;;;;11.81;100.00;100603.41;5075698;28;20178;-75
2023/01/11 09:36:25;;;;;;;22.05;4.68;;;;;;;11.89;100.00;100605.72;5070747;28;20040;-72
2023/01/11 09:38:56;;;;;;;26.30;4.68;;;;;;;11.88;100.00;100617.97;5078340;28;20514;-75
2023/01/11 09:41:45;;;;;;;20.77;5.25;;;;;;;11.86;100.00;100619.59;5082691;28;20127;-74
2023/01/11 09:44:17;;;;;;;26.90;4.78;;;;;;;11.85;100.00;100623.56;5071444;28;20060;-73
2023/01/11 09:46:50;;;;;;;22.05;4.63;;;;;;;11.74;100.00;100631.19;5073738;28;20060;-73
2023/01/11 09:49:26;;;;;;;22.50;4.40;;;;;;;11.74;100.00;100634.72;5068060;28;20049;-73
2023/01/11 09:52:22;;;;;;;9.90;3.35;;;;;;;11.73;100.00;100621.25;5068332;28;20078;-73
2023/01/11 09:54:50;;;;;;;20.05;3.50;;;;;;;11.69;100.00;100637.94;5067186;28;20149;-74
2023/01/11 09:57:36;;;;;;;31.95;4.57;;;;;;;11.72;100.00;100639.09;5075523;28;20055;-74
2023/01/11 10:00:10;;;;;;;12.32;3.58;;;;;;;11.75;100.00;100649.38;5077660;28;20410;-74
2023/01/11 10:02:58;;;;;;;27.00;4.38;;;;;;;11.78;100.00;100652.13;5067373;28;20049;-73
2023/01/11 10:05:28;;;;;;;2.88;1.17;;;;;;;11.63;100.00;100650.66;5067997;28;20071;-73
2023/01/11 10:07:56;;;;;;;24.58;4.05;;;;;;;11.73;100.00;100651.75;5067474;28;20052;-76
2023/01/11 10:11:09;;;;;;;8.63;1.90;;;;;;;11.55;100.00;100656.59;5073564;28;20708;-73
2023/01/11 10:14:24;;;;;;;1.52;1.02;;;;;;;11.66;100.00;100671.22;5066933;28;20561;-76
2023/01/11 10:17:31;;;;;;;19.30;3.83;;;;;;;11.65;100.00;100675.19;5068431;28;20062;-75
2023/01/11 10:20:34;;;;;;;17.77;4.18;;;;;;;11.60;100.00;100664.47;5067291;28;20056;-77
2023/01/11 10:23:05;;;;;;;15.68;3.92;;;;;;;11.65;100.00;100658.56;5067076;28;20037;-76
2023/01/11 10:25:40;;;;;;;20.50;5.05;;;;;;;11.68;100.00;100657.75;5070824;28;20059;-77
2023/01/11 10:28:18;;;;;;;19.75;3.53;;;;;;;11.65;100.00;100664.09;5077489;28;20164;-72
2023/01/11 10:34:09;;;;;;;16.45;3.65;;;;;;;11.66;100.00;100660.91;5079464;28;20088;-76
2023/01/11 10:40:32;;;;;;;13.43;2.92;;;;;;;11.64;100.00;100666.06;5053502;28;20044;-76
2023/01/11 10:43:21;;;;;;;14.52;3.33;;;;;;;11.72;100.00;100658.50;5041105;28;20044;-72
2023/01/11 10:45:52;;;;;;;23.88;3.65;;;;;;;11.59;100.00;100687.84;5056577;28;20128;-75
2023/01/11 10:48:19;;;;;;;13.10;2.72;;;;;;;11.70;100.00;100678.31;5052743;28;20614;-74
2023/01/11 10:51:08;;;;;;;18.92;3.63;;;;;;;11.84;100.00;100680.97;5034685;28;20057;-74
2023/01/11 10:53:41;;;;;;;5.20;1.60;;;;;;;11.66;100.00;100680.31;5039325;28;20045;-74
2023/01/11 10:56:26;;;;;;;17.60;2.63;;;;;;;11.74;100.00;100676.31;5050198;28;20087;-72
2023/01/11 10:59:23;;;;;;;19.55;3.20;;;;;;;11.83;100.00;100681.38;5033770;28;20048;-73
2023/01/11 11:02:10;;;;;;;29.65;4.20;;;;;;;11.70;100.00;100686.63;5035833;28;20418;-73
2023/01/11 11:04:58;;;;;;;21.98;3.70;;;;;;;11.74;100.00;100676.31;5046526;28;20081;-74
2023/01/11 11:07:33;;;;;;;4.95;1.33;;;;;;;11.70;100.00;100689.41;5046817;28;20051;-75
2023/01/11 11:10:25;;;;;;;10.93;3.28;;;;;;;11.82;100.00;100679.81;5053466;28;20147;-76
2023/01/11 11:12:56;;;;;;;10.15;2.63;;;;;;;11.91;100.00;100700.34;5067736;28;20052;-74
2023/01/11 11:15:59;;;;;;;11.38;2.42;;;;;;;11.80;100.00;100701.59;5078194;28;20059;-75
2023/01/11 11:18:26;;;;;;;11.93;2.83;;;;;;;11.75;100.00;100708.34;5063286;28;20098;-75
2023/01/11 11:20:53;;;;;;;11.07;2.72;;;;;;;11.98;100.00;100700.28;5070719;28;20060;-74
2023/01/11 11:23:23;;;;;;;15.77;2.75;;;;;;;11.91;100.00;100699.56;5071960;28;20066;-76
2023/01/11 11:25:55;;;;;;;11.25;2.45;;;;;;;11.87;100.00;100702.34;5072156;28;20374;-74
2023/01/11 11:28:22;;;;;;;8.68;2.60;;;;;;;11.91;100.00;100707.88;5068453;28;20049;-74
2023/01/11 11:30:52;;;;;;;10.68;2.58;;;;;;;11.87;100.00;100693.25;5069713;28;20574;-75
2023/01/11 11:33:36;;;;;;;3.97;1.38;;;;;;;11.82;100.00;100704.78;5072202;28;20063;-75
2023/01/11 11:36:09;;;;;;;22.65;3.47;;;;;;;11.83;100.00;100700.78;5078390;28;20502;-76
2023/01/11 11:39:08;;;;;;;11.48;1.92;;;;;;;11.79;100.00;100709.16;5081259;28;20065;-73
2023/01/11 11:41:50;;;;;;;8.07;2.47;;;;;;;11.90;100.00;100711.84;5073135;28;20044;-73
2023/01/11 11:44:18;;;;;;;15.18;1.85;;;;;;;11.89;100.00;100713.03;5078826;28;20054;-75
2023/01/11 11:47:05;;;;;;;14.50;2.65;;;;;;;12.70;100.00;100713.16;5081685;28;20052;-75
2023/01/11 11:49:34;;;;;;;12.50;1.92;;;;;;;12.43;100.00;100713.00;5071186;28;20052;-75
2023/01/11 11:52:04;;;;;;;7.72;1.42;;;;;;;13.00;100.00;100718.84;5077718;28;20048;-76
2023/01/11 11:54:40;;;;;;;11.60;1.77;;;;;;;14.55;100.00;100707.09;5075400;28;20048;-75
2023/01/11 11:57:20;;;;;;;9.38;2.08;;;;;;;13.89;100.00;100708.94;5072031;28;20048;-75
2023/01/11 11:59:49;;;;;;;9.98;1.83;;;;;;;14.28;100.00;100708.38;5072474;28;20087;-74
2023/01/11 12:02:27;;;;;;;2.38;1.02;;;;;;;14.00;100.00;100723.47;5083171;28;20098;-73
2023/01/11 12:04:57;;;;;;;9.85;2.42;;;;;;;14.74;100.00;100717.50;5071679;28;20131;-75
2023/01/11 12:07:29;;;;;;;15.88;2.65;;;;;;;13.94;100.00;100722.38;5076011;28;20048;-76
2023/01/11 12:10:01;;;;;;;1.83;0.90;;;;;;;13.21;100.00;100721.38;5075542;28;20063;-75
2023/01/11 12:12:31;;;;;;;11.18;1.98;;;;;;;12.65;100.00;100719.94;5073144;28;20044;-75